createdAt,value
2022-11-20T00:01:34.788Z,28.77
2022-11-20T00:04:13.698Z,27.58
2022-11-20T00:06:41.593Z,26.17
2022-11-20T00:09:11.998Z,28.48
2022-11-20T00:16:53.339Z,26.85
2022-11-20T00:19:21.220Z,28.65
2022-11-20T00:21:52.910Z,30.08
2022-11-20T00:24:20.584Z,29.10
2022-11-20T00:26:48.653Z,30.90
2022-11-20T00:29:18.600Z,27.08
2022-11-20T00:31:46.463Z,26.40
2022-11-20T00:34:14.138Z,28.52
2022-11-20T00:36:41.834Z,27.33
2022-11-20T00:39:31.472Z,31.23
2022-11-20T00:41:59.855Z,26.38
2022-11-20T00:44:35.865Z,25.67
2022-11-20T00:47:03.685Z,32.42
2022-11-20T00:49:31.397Z,32.10
2022-11-20T00:51:59.354Z,31.88
2022-11-20T00:54:26.878Z,32.40
2022-11-20T00:56:55.152Z,27.58
2022-11-20T01:02:17.733Z,29.98
2022-11-20T01:04:45.531Z,31.73
2022-11-20T01:07:13.454Z,29.42
2022-11-20T01:09:42.271Z,29.55
2022-11-20T01:12:17.696Z,30.02
2022-11-20T01:14:45.561Z,28.63
2022-11-20T01:17:13.259Z,32.25
2022-11-20T01:19:40.997Z,31.15
2022-11-20T01:22:08.806Z,30.42
2022-11-20T01:24:43.762Z,31.02
2022-11-20T01:27:11.819Z,30.40
2022-11-20T01:29:39.763Z,32.00
2022-11-20T01:32:07.513Z,29.90
2022-11-20T01:34:35.002Z,30.90
2022-11-20T01:37:02.746Z,30.90
2022-11-20T01:39:30.495Z,29.60
2022-11-20T01:42:16.720Z,30.58
2022-11-20T01:45:21.947Z,33.60
2022-11-20T01:47:51.018Z,33.63
2022-11-20T01:50:24.483Z,33.72
2022-11-20T01:53:08.111Z,34.58
2022-11-20T01:55:42.997Z,34.47
2022-11-20T01:58:11.114Z,32.35
2022-11-20T02:00:39.139Z,37.13
2022-11-20T02:03:20.001Z,37.33
2022-11-20T02:05:53.112Z,36.65
2022-11-20T02:08:22.960Z,36.05
2022-11-20T02:10:51.410Z,37.50
2022-11-20T02:13:37.934Z,35.30
2022-11-20T02:16:20.050Z,34.47
2022-11-20T02:18:50.821Z,34.22
2022-11-20T02:21:35.950Z,32.00
2022-11-20T02:24:08.226Z,34.40
2022-11-20T02:26:42.396Z,33.28
2022-11-20T02:29:10.307Z,31.35
2022-11-20T02:31:41.225Z,31.88
2022-11-20T02:34:09.370Z,28.60
2022-11-20T02:36:39.983Z,31.50
2022-11-20T02:39:08.335Z,31.98
2022-11-20T02:41:57.384Z,31.35
2022-11-20T02:44:25.307Z,32.85
2022-11-20T02:46:53.301Z,36.25
2022-11-20T02:49:21.291Z,32.42
2022-11-20T02:51:49.434Z,33.50
2022-11-20T02:54:17.584Z,34.08
2022-11-20T02:56:45.241Z,33.92
2022-11-20T02:59:12.875Z,33.38
2022-11-20T03:01:41.034Z,36.25
2022-11-20T03:04:09.046Z,34.97
2022-11-20T03:06:44.140Z,34.22
2022-11-20T03:09:11.939Z,31.40
2022-11-20T03:11:39.982Z,32.25
2022-11-20T03:16:55.066Z,31.85
2022-11-20T03:19:23.396Z,35.50
2022-11-20T03:21:57.633Z,32.72
2022-11-20T03:24:25.629Z,31.40
2022-11-20T03:26:57.402Z,32.92
2022-11-20T03:29:25.230Z,31.30
2022-11-20T03:31:52.791Z,31.88
2022-11-20T03:34:35.951Z,36.13
2022-11-20T03:37:03.871Z,32.95
2022-11-20T03:39:33.710Z,34.40
2022-11-20T03:42:01.424Z,34.75
2022-11-20T03:44:29.391Z,33.63
2022-11-20T03:46:56.972Z,32.70
2022-11-20T03:49:24.677Z,31.77
2022-11-20T03:51:52.654Z,32.97
2022-11-20T03:54:20.340Z,35.85
2022-11-20T03:56:48.208Z,34.08
2022-11-20T03:59:15.707Z,33.33
2022-11-20T04:01:48.313Z,32.30
2022-11-20T04:04:17.617Z,34.45
2022-11-20T04:06:45.357Z,32.17
2022-11-20T04:09:13.865Z,35.33
2022-11-20T04:11:42.080Z,38.22
2022-11-20T04:14:21.440Z,35.83
2022-11-20T04:16:50.504Z,33.10
2022-11-20T04:19:18.989Z,32.40
2022-11-20T04:22:00.320Z,38.78
2022-11-20T04:24:27.991Z,35.08
2022-11-20T04:26:55.844Z,33.38
2022-11-20T04:29:23.845Z,32.28
2022-11-20T04:31:51.949Z,32.80
2022-11-20T04:34:19.847Z,30.85
2022-11-20T04:36:47.618Z,31.13
2022-11-20T04:39:19.156Z,36.17
2022-11-20T04:41:47.350Z,34.15
2022-11-20T04:44:15.394Z,29.27
2022-11-20T04:46:46.246Z,35.60
2022-11-20T04:49:15.956Z,32.83
2022-11-20T04:51:43.605Z,33.08
2022-11-20T04:54:13.115Z,35.22
2022-11-20T04:56:41.098Z,35.03
2022-11-20T04:59:08.875Z,34.72
2022-11-20T05:01:36.874Z,34.28
2022-11-20T05:04:04.930Z,35.20
2022-11-20T05:06:33.101Z,34.25
2022-11-20T05:09:01.569Z,36.13
2022-11-20T05:11:32.364Z,35.83
2022-11-20T05:14:01.355Z,36.55
2022-11-20T05:16:29.524Z,34.47
2022-11-20T05:18:57.413Z,34.65
2022-11-20T05:21:25.245Z,34.55
2022-11-20T05:23:52.834Z,36.75
2022-11-20T05:26:22.822Z,36.17
2022-11-20T05:28:51.672Z,36.17
2022-11-20T05:31:27.710Z,37.08
2022-11-20T05:33:57.557Z,34.40
2022-11-20T05:36:26.290Z,35.33
2022-11-20T05:38:59.808Z,36.67
2022-11-20T05:41:29.329Z,34.88
2022-11-20T05:43:57.969Z,37.35
2022-11-20T05:46:28.692Z,38.17
2022-11-20T05:48:58.526Z,35.20
2022-11-20T05:51:28.952Z,34.53
2022-11-20T05:56:27.876Z,37.75
2022-11-20T05:58:55.781Z,34.38
2022-11-20T06:01:25.892Z,35.65
2022-11-20T06:03:55.009Z,34.63
2022-11-20T06:06:23.320Z,34.25
2022-11-20T06:08:51.045Z,34.83
2022-11-20T06:11:19.582Z,32.03
2022-11-20T06:13:48.249Z,37.88
2022-11-20T06:16:18.764Z,33.45
2022-11-20T06:18:47.184Z,32.55
2022-11-20T06:21:14.967Z,33.80
2022-11-20T06:23:43.746Z,36.03
2022-11-20T06:26:14.647Z,33.17
2022-11-20T06:28:42.563Z,31.95
2022-11-20T06:31:13.137Z,33.95
2022-11-20T06:33:41.848Z,33.75
2022-11-20T06:36:11.666Z,34.08
2022-11-20T06:38:40.112Z,33.83
2022-11-20T06:41:11.915Z,35.88
2022-11-20T06:43:39.842Z,33.17
2022-11-20T06:46:08.101Z,35.35
2022-11-20T06:48:35.809Z,31.63
2022-11-20T06:51:08.632Z,32.97
2022-11-20T06:53:37.796Z,32.97
2022-11-20T06:56:06.632Z,31.60
2022-11-20T06:58:35.794Z,33.80
2022-11-20T07:01:06.947Z,31.38
2022-11-20T07:03:35.000Z,35.38
2022-11-20T07:06:03.297Z,33.78
2022-11-20T07:08:31.041Z,33.63
2022-11-20T07:11:00.833Z,74.78
2022-11-20T07:13:29.661Z,47.15
2022-11-20T07:16:05.060Z,54.00
2022-11-20T07:18:33.138Z,43.90
2022-11-20T07:21:11.513Z,39.35
2022-11-20T07:23:39.570Z,37.90
2022-11-20T07:26:11.930Z,35.25
2022-11-20T07:28:39.913Z,34.35
2022-11-20T07:31:08.866Z,30.95
2022-11-20T07:33:37.054Z,31.70
2022-11-20T07:36:05.758Z,36.47
2022-11-20T07:38:33.595Z,39.15
2022-11-20T07:41:03.083Z,34.88
2022-11-20T07:43:33.120Z,35.17
2022-11-20T07:46:02.972Z,38.30
2022-11-20T07:48:30.662Z,37.47
2022-11-20T07:50:58.572Z,35.35
2022-11-20T07:53:26.474Z,36.58
2022-11-20T07:55:54.689Z,36.60
2022-11-20T07:58:23.414Z,39.35
2022-11-20T08:00:51.615Z,34.08
2022-11-20T08:03:24.721Z,33.80
2022-11-20T08:05:53.517Z,37.63
2022-11-20T08:08:22.728Z,37.55
2022-11-20T08:10:50.427Z,38.05
2022-11-20T08:13:36.839Z,35.47
2022-11-20T08:16:05.017Z,37.40
2022-11-20T08:18:33.214Z,42.95
2022-11-20T08:21:13.714Z,38.95
2022-11-20T08:23:52.144Z,35.03
2022-11-20T08:26:23.688Z,40.40
2022-11-20T08:29:02.500Z,33.50
2022-11-20T08:31:36.817Z,34.53
2022-11-20T08:34:09.284Z,34.70
2022-11-20T08:36:41.457Z,50.72
2022-11-20T08:39:19.085Z,44.15
2022-11-20T09:08:44.347Z,28.95
2022-11-20T09:11:13.123Z,29.10
2022-11-20T09:13:44.171Z,26.83
2022-11-20T09:16:14.176Z,26.67
2022-11-20T09:19:20.276Z,26.20
2022-11-20T09:21:45.681Z,26.25
2022-11-20T09:24:17.349Z,24.77
2022-11-20T09:26:46.494Z,28.23
2022-11-20T09:29:15.755Z,27.50
2022-11-20T09:31:48.077Z,25.63
2022-11-20T09:34:19.828Z,22.30
2022-11-20T09:36:49.180Z,24.27
2022-11-20T09:39:21.758Z,25.73
2022-11-20T09:42:22.589Z,26.42
2022-11-20T09:44:56.079Z,26.25
2022-11-20T09:47:41.440Z,24.20
2022-11-20T09:50:51.209Z,23.50
2022-11-20T09:53:31.578Z,22.73
2022-11-20T09:56:03.281Z,25.30
2022-11-20T09:58:45.262Z,22.77
2022-11-20T10:01:16.126Z,24.48
2022-11-20T10:04:05.377Z,23.73
2022-11-20T10:09:57.789Z,24.53
2022-11-20T10:12:50.768Z,22.15
2022-11-20T10:15:33.781Z,26.50
2022-11-20T10:18:32.899Z,25.13
2022-11-20T10:21:13.794Z,24.88
2022-11-20T10:23:48.483Z,29.10
2022-11-20T10:26:49.086Z,27.55
2022-11-20T10:31:51.708Z,27.15
2022-11-20T10:34:28.473Z,24.52
2022-11-20T10:37:18.146Z,26.30
2022-11-20T10:40:24.119Z,24.80
2022-11-20T10:42:58.078Z,26.67
2022-11-20T10:45:26.075Z,25.08
2022-11-20T10:48:16.730Z,25.55
2022-11-20T10:51:15.195Z,21.85
2022-11-20T10:53:49.360Z,28.48
2022-11-20T10:56:39.485Z,22.50
2022-11-20T10:59:24.808Z,22.55
2022-11-20T11:01:53.222Z,25.92
2022-11-20T11:04:37.067Z,25.50
2022-11-20T11:07:14.279Z,26.00
2022-11-20T11:09:52.459Z,22.88
2022-11-20T11:12:22.823Z,27.23
2022-11-20T11:17:29.649Z,27.42
2022-11-20T11:20:08.736Z,20.17
2022-11-20T11:22:49.369Z,25.33
2022-11-20T11:25:23.687Z,30.17
2022-11-20T11:27:53.543Z,25.98
2022-11-20T11:30:22.525Z,22.35
2022-11-20T11:32:51.394Z,26.27
2022-11-20T11:35:29.848Z,25.95
2022-11-20T11:38:10.206Z,20.23
2022-11-20T11:40:41.498Z,22.92
2022-11-20T11:43:40.675Z,25.45
2022-11-20T11:46:37.060Z,27.33
2022-11-20T11:49:05.711Z,23.05
2022-11-20T11:51:57.369Z,22.15
2022-11-20T11:54:43.426Z,26.70
2022-11-20T11:57:52.965Z,29.75
2022-11-20T12:00:24.710Z,26.70
2022-11-20T12:03:07.379Z,29.58
2022-11-20T12:06:13.401Z,23.25
2022-11-20T12:08:59.318Z,23.85
2022-11-20T12:11:40.330Z,23.52
2022-11-20T12:14:17.316Z,24.70
2022-11-20T12:16:45.614Z,24.65
2022-11-20T12:19:15.755Z,22.10
2022-11-20T12:22:01.997Z,26.08
2022-11-20T12:24:45.472Z,27.50
2022-11-20T12:27:45.689Z,27.33
2022-11-20T12:30:26.519Z,25.85
2022-11-20T12:32:54.955Z,28.17
2022-11-20T12:35:37.571Z,28.35
2022-11-20T12:38:30.555Z,28.17
2022-11-20T12:41:43.251Z,28.67
2022-11-20T12:44:48.592Z,28.08
2022-11-20T12:47:43.472Z,28.15
2022-11-20T12:50:42.902Z,25.25
2022-11-20T12:53:37.168Z,25.02
2022-11-20T12:56:15.609Z,22.53
2022-11-20T12:59:02.544Z,25.48
2022-11-20T13:01:53.639Z,22.50
2022-11-20T13:04:34.295Z,25.25
2022-11-20T13:07:07.037Z,24.15
2022-11-20T13:09:41.253Z,26.20
2022-11-20T13:12:44.114Z,28.52
2022-11-20T13:15:29.167Z,23.27
2022-11-20T13:18:17.272Z,23.58
2022-11-20T13:20:46.988Z,25.00
2022-11-20T13:23:29.007Z,23.83
2022-11-20T13:26:15.326Z,25.73
2022-11-20T13:28:44.094Z,20.15
2022-11-20T13:31:33.276Z,20.25
2022-11-20T13:34:03.354Z,20.98
2022-11-20T13:36:33.840Z,23.73
2022-11-20T13:41:39.206Z,29.88
2022-11-20T13:44:26.736Z,33.05
2022-11-20T13:46:55.364Z,28.20
2022-11-20T13:49:27.087Z,22.42
2022-11-20T13:52:29.464Z,47.65
2022-11-20T13:55:06.646Z,25.73
2022-11-20T13:57:46.621Z,30.27
2022-11-20T14:00:23.909Z,26.23
2022-11-20T14:02:54.771Z,27.20
2022-11-20T14:05:24.666Z,27.38
2022-11-20T14:07:54.112Z,21.23
2022-11-20T14:10:31.795Z,20.10
2022-11-20T14:13:11.344Z,22.20
2022-11-20T14:15:44.892Z,21.83
2022-11-20T14:18:16.450Z,26.52
2022-11-20T14:20:45.254Z,26.33
2022-11-20T14:23:12.957Z,23.23
2022-11-20T14:25:46.191Z,26.77
2022-11-20T14:28:25.817Z,27.45
2022-11-20T14:30:54.939Z,24.67
2022-11-20T14:33:25.997Z,31.90
2022-11-20T14:36:00.110Z,35.55
2022-11-20T14:38:30.330Z,37.47
2022-11-20T14:41:23.012Z,32.00
2022-11-20T14:44:00.971Z,33.58
2022-11-20T14:46:29.593Z,28.77
2022-11-20T14:49:01.649Z,26.50
2022-11-20T14:51:44.433Z,28.95
2022-11-20T14:54:18.616Z,29.80
2022-11-20T14:57:00.452Z,29.00
2022-11-20T14:59:31.919Z,28.55
2022-11-20T15:02:10.031Z,27.30
2022-11-20T15:05:01.176Z,27.80
2022-11-20T15:07:37.479Z,26.20
2022-11-20T15:10:09.526Z,27.88
2022-11-20T15:12:50.861Z,26.77
2022-11-20T15:15:33.780Z,24.67
2022-11-20T15:18:02.201Z,24.50
2022-11-20T15:20:35.185Z,24.55
2022-11-20T15:23:03.709Z,25.95
2022-11-20T15:25:31.794Z,22.88
2022-11-20T15:27:59.860Z,22.83
2022-11-20T15:30:28.081Z,23.35
2022-11-20T15:32:55.844Z,26.35
2022-11-20T15:35:24.142Z,23.33
2022-11-20T15:37:52.187Z,21.52
2022-11-20T15:40:20.149Z,22.05
2022-11-20T15:43:12.859Z,21.20
2022-11-20T15:45:47.498Z,40.65
2022-11-20T15:48:24.545Z,63.97
2022-11-20T15:51:03.246Z,62.63
2022-11-20T15:53:31.824Z,64.35
2022-11-20T15:56:00.677Z,64.25
2022-11-20T15:58:28.887Z,58.90
2022-11-20T16:00:57.694Z,43.58
2022-11-20T16:03:29.968Z,42.10
2022-11-20T16:05:58.059Z,45.47
2022-11-20T16:08:26.044Z,43.53
2022-11-20T16:10:54.033Z,39.53
2022-11-20T16:13:40.932Z,49.95
2022-11-20T16:16:22.166Z,45.67
2022-11-20T16:18:51.695Z,36.75
2022-11-20T16:21:19.736Z,32.53
2022-11-20T16:23:47.840Z,47.42
2022-11-20T16:26:20.051Z,41.17
2022-11-20T16:28:48.858Z,41.55
2022-11-20T16:31:19.441Z,37.03
2022-11-20T16:34:23.508Z,36.53
2022-11-20T16:36:51.666Z,32.67
2022-11-20T16:39:23.650Z,48.65
2022-11-20T16:41:54.126Z,41.30
2022-11-20T16:44:22.336Z,42.10
2022-11-20T16:46:50.920Z,34.42
2022-11-20T16:49:19.153Z,28.92
2022-11-20T16:51:47.532Z,29.58
2022-11-20T16:54:20.491Z,27.67
2022-11-20T16:56:51.632Z,28.67
2022-11-20T16:59:20.250Z,32.50
2022-11-20T17:01:48.249Z,39.70
2022-11-20T17:04:16.463Z,29.27
2022-11-20T17:06:45.472Z,38.47
2022-11-20T17:09:14.179Z,36.70
2022-11-20T17:11:42.742Z,40.30
2022-11-20T17:14:15.132Z,42.17
2022-11-20T17:16:43.705Z,39.55
2022-11-20T17:19:12.670Z,36.80
2022-11-20T17:21:41.221Z,36.10
2022-11-20T17:24:11.684Z,27.80
2022-11-20T17:26:41.485Z,59.92
2022-11-20T17:29:13.264Z,52.88
2022-11-20T17:31:42.038Z,33.03
2022-11-20T17:34:13.725Z,29.77
2022-11-20T17:36:45.777Z,26.67
2022-11-20T17:39:18.412Z,30.05
2022-11-20T17:42:06.948Z,30.98
2022-11-20T17:44:35.883Z,35.83
2022-11-20T17:47:04.084Z,39.95
2022-11-20T17:49:32.350Z,41.78
2022-11-20T17:52:00.552Z,42.55
2022-11-20T17:54:29.126Z,39.75
2022-11-20T17:57:15.459Z,44.00
2022-11-20T17:59:44.385Z,45.30
2022-11-20T18:02:12.973Z,47.35
2022-11-20T18:04:40.947Z,43.63
2022-11-20T18:07:09.229Z,44.22
2022-11-20T18:09:37.338Z,47.15
2022-11-20T18:12:06.053Z,54.80
2022-11-20T18:14:35.499Z,40.55
2022-11-20T18:17:09.756Z,34.78
2022-11-20T18:20:00.698Z,37.15
2022-11-20T18:22:32.235Z,33.72
2022-11-20T18:25:00.601Z,40.90
2022-11-20T18:27:30.025Z,47.25
2022-11-20T18:29:58.264Z,46.22
2022-11-20T18:32:26.461Z,55.63
2022-11-20T18:34:55.192Z,46.17
2022-11-20T18:37:24.002Z,43.30
2022-11-20T18:39:54.771Z,44.95
2022-11-20T18:42:42.099Z,45.15
2022-11-20T18:45:11.727Z,44.60
2022-11-20T18:47:40.591Z,47.00
2022-11-20T18:50:10.077Z,51.30
2022-11-20T18:52:45.695Z,46.13
2022-11-20T18:55:13.773Z,47.45
2022-11-20T18:57:43.390Z,36.27
2022-11-20T19:00:13.298Z,46.55
2022-11-20T19:02:43.447Z,46.47
2022-11-20T19:07:45.940Z,58.97
2022-11-20T19:10:18.884Z,75.63
2022-11-20T19:12:48.633Z,46.47
2022-11-20T19:15:16.765Z,33.42
2022-11-20T19:17:44.972Z,39.60
2022-11-20T19:20:13.605Z,37.75
2022-11-20T19:22:41.515Z,46.70
2022-11-20T19:25:10.788Z,50.50
2022-11-20T19:27:39.646Z,47.33
2022-11-20T19:30:08.773Z,46.45
2022-11-20T19:32:37.085Z,47.40
2022-11-20T19:35:06.035Z,108.13
2022-11-20T19:37:36.991Z,72.63
2022-11-20T19:40:05.899Z,43.35
2022-11-20T19:42:34.125Z,40.50
2022-11-20T19:45:05.567Z,39.55
2022-11-20T19:48:01.014Z,41.35
2022-11-20T19:50:24.951Z,43.67
2022-11-20T19:52:58.745Z,42.15
2022-11-20T19:55:28.156Z,44.90
2022-11-20T19:57:57.730Z,42.38
2022-11-20T20:00:31.071Z,36.38
2022-11-20T20:03:01.571Z,39.08
2022-11-20T20:05:31.019Z,33.78
2022-11-20T20:07:59.375Z,33.10
2022-11-20T20:10:28.891Z,36.90
2022-11-20T20:12:58.196Z,34.90
2022-11-20T20:15:26.274Z,33.13
2022-11-20T20:17:56.004Z,30.98
2022-11-20T20:20:25.427Z,36.63
2022-11-20T20:22:54.065Z,37.40
2022-11-20T20:25:23.816Z,36.22
2022-11-20T20:27:52.022Z,32.85
2022-11-20T20:30:20.566Z,34.30
2022-11-20T20:32:53.293Z,35.95
2022-11-20T20:35:24.117Z,38.80
2022-11-20T20:37:52.448Z,37.33
2022-11-20T20:40:21.046Z,37.60
2022-11-20T20:42:49.125Z,50.28
2022-11-20T20:45:17.514Z,42.03
2022-11-20T20:47:45.612Z,37.00
2022-11-20T20:50:14.514Z,37.55
2022-11-20T20:52:43.180Z,36.95
2022-11-20T20:55:12.155Z,43.03
2022-11-20T20:57:40.486Z,41.22
2022-11-20T21:00:09.815Z,39.78
2022-11-20T21:02:37.987Z,109.43
2022-11-20T21:05:06.377Z,124.95
2022-11-20T21:07:55.588Z,43.53
2022-11-20T21:10:24.273Z,37.58
2022-11-20T21:12:52.406Z,38.72
2022-11-20T21:15:20.746Z,35.47
2022-11-20T21:17:52.080Z,38.20
2022-11-20T21:20:38.683Z,41.17
2022-11-20T21:23:11.598Z,38.78
2022-11-20T21:25:41.164Z,42.15
2022-11-20T21:28:12.091Z,41.83
2022-11-20T21:30:42.480Z,36.38
2022-11-20T21:33:10.309Z,38.67
2022-11-20T21:35:38.516Z,35.83
2022-11-20T21:38:06.510Z,44.47
2022-11-20T21:40:34.415Z,46.75
2022-11-20T21:43:03.198Z,42.13
2022-11-20T21:45:31.385Z,42.25
2022-11-20T21:47:59.201Z,42.92
2022-11-20T21:50:34.756Z,42.10
2022-11-20T21:53:14.713Z,40.95
2022-11-20T21:55:54.547Z,43.65
2022-11-20T21:58:22.895Z,42.80
2022-11-20T22:00:51.340Z,41.33
2022-11-20T22:03:19.319Z,43.53
2022-11-20T22:05:59.694Z,44.63
2022-11-20T22:11:01.219Z,39.92
2022-11-20T22:13:48.056Z,39.63
2022-11-20T22:16:16.310Z,45.00
2022-11-20T22:18:51.500Z,42.30
2022-11-20T22:21:22.227Z,40.22
2022-11-20T22:23:50.549Z,44.75
2022-11-20T22:26:21.017Z,44.17
2022-11-20T22:28:50.685Z,49.10
2022-11-20T22:31:21.555Z,52.90
2022-11-20T22:33:50.890Z,48.35
2022-11-20T22:36:24.579Z,47.70
2022-11-20T22:38:52.721Z,46.33
2022-11-20T22:41:23.246Z,48.17
2022-11-20T22:43:56.390Z,51.67
2022-11-20T22:46:25.264Z,47.72
2022-11-20T22:49:00.572Z,49.15
2022-11-20T22:51:36.748Z,48.97
2022-11-20T22:54:04.982Z,47.13
2022-11-20T22:56:33.451Z,46.92
2022-11-20T22:59:01.384Z,45.05
2022-11-20T23:01:31.898Z,46.42
2022-11-20T23:04:04.939Z,49.75
2022-11-20T23:06:34.616Z,44.58
2022-11-20T23:09:06.831Z,42.33
2022-11-20T23:11:35.769Z,42.80
2022-11-20T23:14:11.637Z,43.70
2022-11-20T23:16:39.726Z,38.95
2022-11-20T23:19:11.222Z,40.65
2022-11-20T23:21:40.740Z,39.63
2022-11-20T23:24:09.356Z,41.03
2022-11-20T23:26:39.283Z,36.97
2022-11-20T23:29:07.876Z,35.53
2022-11-20T23:31:36.126Z,36.75
2022-11-20T23:34:04.536Z,36.05
2022-11-20T23:36:32.488Z,38.60
2022-11-20T23:39:00.498Z,35.33
2022-11-20T23:41:28.263Z,37.63
2022-11-20T23:43:55.902Z,34.78
2022-11-20T23:46:23.946Z,40.10
2022-11-20T23:48:51.607Z,41.92
2022-11-20T23:51:19.587Z,42.17
2022-11-20T23:53:47.609Z,39.35
2022-11-20T23:56:15.435Z,40.28
2022-11-20T23:58:43.881Z,39.35
